21kousinmaru — JD2168 — position and weather

sailwx.info

Track history (hours):
 
Tides and Currents Weather Stations Pressure Air Temp Water Temp Dewpoint Dewpoint Depression Visibility Wind Speed Wind Dir Waves Ship Positions

21kousinmaru

Last reported at 2015-Jul-03 10:33 UTC. Time now 2015-Jul-03 10:42 UTC.
Position N 35°31' E 140°01'.

Length 68 m; draft 4 m.

MMSI: 431501835.

Date/timePositionNaut miles runAvg speedWind from/ knotsBaromVisibWave heightAir tempDewpointWater temp
2015-Jul-03 10:33N 35°31' E 140°01'0 0.0
2015-Jul-03 09:34N 35°31' E 140°01'0 0.0
2015-Jul-03 08:34N 35°31' E 140°01'0 0.0
2015-Jul-03 07:34N 35°31' E 140°01'0 0.0
2015-Jul-03 06:34N 35°31' E 140°01'1 1.3
2015-Jul-03 05:34N 35°31' E 140°02'0 0.0
2015-Jul-03 04:34N 35°31' E 140°02'0 0.0
2015-Jul-03 03:34N 35°31' E 140°02'0 0.0
2015-Jul-03 02:34N 35°31' E 140°02'2 2.2
2015-Jul-03 01:34N 35°32' E 140°01'4 3.6
2015-Jul-03 00:34N 35°31' E 139°57'9 9.2
2015-Jul-02 23:33N 35°26' E 139°48'1010.2
2015-Jul-02 22:33N 35°16' E 139°47'1212.2
2015-Jul-02 21:33N 35°04' E 139°43'24010.4
2015-Jul-01 22:32N 34°10' E 134°59'1211.0
2015-Jul-01 21:24N 34°23' E 135°01'1012.5
2015-Jul-01 20:33N 34°29' E 135°12'7 6.7
2015-Jul-01 19:30N 34°32' E 135°19'0 0.0
2015-Jul-01 18:28N 34°32' E 135°19'0 0.0
2015-Jul-01 17:25N 34°32' E 135°19'0 0.0
2015-Jul-01 16:33N 34°32' E 135°19'0 0.0
2015-Jul-01 15:33N 34°32' E 135°19'0 0.0
2015-Jul-01 14:33N 34°32' E 135°19'0 0.0
2015-Jul-01 13:33N 34°32' E 135°19'0 0.0
2015-Jul-01 12:33N 34°32' E 135°19'0 0.1
2015-Jul-01 11:33N 34°32' E 135°19'0 0.0
2015-Jul-01 10:33N 34°32' E 135°19'0 0.0
2015-Jul-01 09:33N 34°32' E 135°19'0 0.0
2015-Jul-01 08:33N 34°32' E 135°19'0 0.0
2015-Jul-01 07:32N 34°32' E 135°19'0 0.0
2015-Jul-01 06:33N 34°32' E 135°19'1 0.9
2015-Jul-01 05:33N 34°32' E 135°20'3 0.5
2015-Jun-30 22:33N 34°33' E 135°24'4 4.3
2015-Jun-30 21:33N 34°33' E 135°19'0 0.0
2015-Jun-30 20:33N 34°33' E 135°19'0 0.0
2015-Jun-30 19:31N 34°33' E 135°19'0 0.1
2015-Jun-30 18:33N 34°33' E 135°19'0 0.0
2015-Jun-30 17:33N 34°33' E 135°19'0 0.0
2015-Jun-30 16:33N 34°33' E 135°19'0 0.0
2015-Jun-30 15:33N 34°33' E 135°19'0 0.0
2015-Jun-30 14:33N 34°33' E 135°19'0 0.0
2015-Jun-30 13:33N 34°33' E 135°19'0 0.0
2015-Jun-30 12:33N 34°33' E 135°19'0 0.0
2015-Jun-30 11:33N 34°33' E 135°19'0 0.0
2015-Jun-30 10:33N 34°33' E 135°19'0 0.0
2015-Jun-30 09:33N 34°33' E 135°19'2 1.8
2015-Jun-30 08:33N 34°31' E 135°17'1413.2
2015-Jun-30 07:31N 34°22' E 135°05'1211.7
2015-Jun-30 06:32N 34°11' E 134°60'23010.4
2015-Jun-29 08:28N 35°03' E 139°32'1112.4
2015-Jun-29 07:33N 35°09' E 139°44'1111.4
2015-Jun-29 06:33N 35°20' E 139°42'1211.7
2015-Jun-29 05:33N 35°29' E 139°51'3 3.5
2015-Jun-29 04:33N 35°29' E 139°56'6 5.9
2015-Jun-29 03:33N 35°31' E 140°02'0 0.2
2015-Jun-29 02:33N 35°31' E 140°02'0 0.0
2015-Jun-29 01:33N 35°31' E 140°02'0 0.0
2015-Jun-29 00:33N 35°31' E 140°02'0 0.0
2015-Jun-28 23:33N 35°31' E 140°02'6 5.7
2015-Jun-28 22:33N 35°29' E 139°56'0 0.4
2015-Jun-28 21:33N 35°29' E 139°55'0 0.0
2015-Jun-28 20:32N 35°29' E 139°55'0 0.0
2015-Jun-28 19:33N 35°29' E 139°55'0 0.0
2015-Jun-28 18:33N 35°29' E 139°55'0 0.0
2015-Jun-28 17:34N 35°29' E 139°55'0 0.0
2015-Jun-28 16:34N 35°29' E 139°55'0 0.0
2015-Jun-28 15:33N 35°29' E 139°55'0 0.0
2015-Jun-28 14:33N 35°29' E 139°55'0 0.0
2015-Jun-28 13:34N 35°29' E 139°55'0 0.0
2015-Jun-28 12:33N 35°29' E 139°55'0 0.0
2015-Jun-28 11:33N 35°29' E 139°55'4 4.1
2015-Jun-28 10:33N 35°27' E 139°51'1111.1
2015-Jun-28 09:34N 35°17' E 139°45'1211.8
2015-Jun-28 08:33N 35°06' E 139°44'24110.5
2015-Jun-27 09:31N 34°09' E 134°59'1411.1
2015-Jun-27 08:14N 34°23' E 135°02'912.3
2015-Jun-27 07:30N 34°27' E 135°11'1212.7
2015-Jun-27 06:33N 34°33' E 135°24'2 0.6
2015-Jun-27 03:30N 34°33' E 135°25'0 0.0
2015-Jun-27 01:26N 34°33' E 135°25'0 0.0
2015-Jun-27 00:33N 34°33' E 135°25'0 0.0
2015-Jun-26 23:31N 34°33' E 135°25'2 1.7
2015-Jun-26 22:33N 34°33' E 135°24'4 3.8
2015-Jun-26 21:33N 34°33' E 135°19'0 0.0
2015-Jun-26 20:33N 34°33' E 135°19'0 0.0
2015-Jun-26 19:32N 34°33' E 135°19'0 0.1
2015-Jun-26 18:33N 34°33' E 135°19'0 0.1
2015-Jun-26 17:33N 34°33' E 135°19'0 0.0
2015-Jun-26 16:33N 34°33' E 135°19'0 0.0
2015-Jun-26 15:33N 34°33' E 135°19'0 0.0
2015-Jun-26 14:33N 34°33' E 135°19'0 0.0
2015-Jun-26 13:33N 34°33' E 135°19'0 0.1
2015-Jun-26 12:33N 34°33' E 135°19'0 0.0
2015-Jun-26 11:33N 34°33' E 135°19'0 0.0
2015-Jun-26 10:33N 34°33' E 135°19'0 0.0
2015-Jun-26 09:33N 34°33' E 135°19'0 0.0
2015-Jun-26 08:33N 34°33' E 135°19'0 0.1
2015-Jun-26 07:33N 34°33' E 135°19'0 0.1
2015-Jun-26 06:33N 34°32' E 135°19'1312.5
2015-Jun-26 05:31N 34°24' E 135°08'1212.5
2015-Jun-26 04:32N 34°13' E 134°60'23610.3
2015-Jun-25 05:33N 35°06' E 139°39'1211.6
2015-Jun-25 04:32N 35°16' E 139°45'1110.8
2015-Jun-25 03:33N 35°27' E 139°47'1312.6
2015-Jun-25 02:33N 35°31' E 140°01'1 1.2
2015-Jun-25 01:33N 35°31' E 140°02'0 0.0
2015-Jun-25 00:33N 35°31' E 140°02'0 0.0
2015-Jun-24 23:34N 35°31' E 140°02'0 0.0
2015-Jun-24 22:33N 35°31' E 140°02'5 5.3
2015-Jun-24 21:33N 35°29' E 139°56'1 1.3
2015-Jun-24 20:33N 35°29' E 139°55'0 0.0
2015-Jun-24 19:33N 35°29' E 139°55'0 0.0
2015-Jun-24 18:33N 35°29' E 139°55'0 0.0
2015-Jun-24 17:33N 35°29' E 139°55'0 0.0
2015-Jun-24 16:33N 35°29' E 139°55'0 0.0
2015-Jun-24 15:34N 35°29' E 139°55'0 0.1
2015-Jun-24 14:33N 35°29' E 139°55'0 0.0
2015-Jun-24 13:33N 35°29' E 139°55'0 0.0
2015-Jun-24 12:33N 35°29' E 139°55'0 0.0
2015-Jun-24 11:33N 35°29' E 139°55'0 0.1
2015-Jun-24 10:33N 35°29' E 139°55'0 0.0
2015-Jun-24 09:33N 35°29' E 139°55'1010.4
2015-Jun-24 08:34N 35°22' E 139°45'1212.1
2015-Jun-24 07:33N 35°10' E 139°46'  
Track history (hours):
 
Tides and Currents Weather Stations Pressure Air Temp Water Temp Dewpoint Dewpoint Depression Visibility Wind Speed Wind Dir Waves Ship Positions

21kousinmaru

Last reported at 2015-Jul-03 10:33 UTC. Time now 2015-Jul-03 10:42 UTC.
Position N 35°31' E 140°01'.

Length 68 m; draft 4 m.

MMSI: 431501835.

Date/timePositionNaut miles runAvg speedWind from/ knotsBaromVisibWave heightAir tempDewpointWater temp
2015-Jul-03 10:33N 35°31' E 140°01'0 0.0
2015-Jul-03 09:34N 35°31' E 140°01'0 0.0
2015-Jul-03 08:34N 35°31' E 140°01'0 0.0
2015-Jul-03 07:34N 35°31' E 140°01'0 0.0
2015-Jul-03 06:34N 35°31' E 140°01'1 1.3
2015-Jul-03 05:34N 35°31' E 140°02'0 0.0
2015-Jul-03 04:34N 35°31' E 140°02'0 0.0
2015-Jul-03 03:34N 35°31' E 140°02'0 0.0
2015-Jul-03 02:34N 35°31' E 140°02'2 2.2
2015-Jul-03 01:34N 35°32' E 140°01'4 3.6
2015-Jul-03 00:34N 35°31' E 139°57'9 9.2
2015-Jul-02 23:33N 35°26' E 139°48'1010.2
2015-Jul-02 22:33N 35°16' E 139°47'1212.2
2015-Jul-02 21:33N 35°04' E 139°43'24010.4
2015-Jul-01 22:32N 34°10' E 134°59'1211.0
2015-Jul-01 21:24N 34°23' E 135°01'1012.5
2015-Jul-01 20:33N 34°29' E 135°12'7 6.7
2015-Jul-01 19:30N 34°32' E 135°19'0 0.0
2015-Jul-01 18:28N 34°32' E 135°19'0 0.0
2015-Jul-01 17:25N 34°32' E 135°19'0 0.0
2015-Jul-01 16:33N 34°32' E 135°19'0 0.0
2015-Jul-01 15:33N 34°32' E 135°19'0 0.0
2015-Jul-01 14:33N 34°32' E 135°19'0 0.0
2015-Jul-01 13:33N 34°32' E 135°19'0 0.0
2015-Jul-01 12:33N 34°32' E 135°19'0 0.1
2015-Jul-01 11:33N 34°32' E 135°19'0 0.0
2015-Jul-01 10:33N 34°32' E 135°19'0 0.0
2015-Jul-01 09:33N 34°32' E 135°19'0 0.0
2015-Jul-01 08:33N 34°32' E 135°19'0 0.0
2015-Jul-01 07:32N 34°32' E 135°19'0 0.0
2015-Jul-01 06:33N 34°32' E 135°19'1 0.9
2015-Jul-01 05:33N 34°32' E 135°20'3 0.5
2015-Jun-30 22:33N 34°33' E 135°24'4 4.3
2015-Jun-30 21:33N 34°33' E 135°19'0 0.0
2015-Jun-30 20:33N 34°33' E 135°19'0 0.0
2015-Jun-30 19:31N 34°33' E 135°19'0 0.1
2015-Jun-30 18:33N 34°33' E 135°19'0 0.0
2015-Jun-30 17:33N 34°33' E 135°19'0 0.0
2015-Jun-30 16:33N 34°33' E 135°19'0 0.0
2015-Jun-30 15:33N 34°33' E 135°19'0 0.0
2015-Jun-30 14:33N 34°33' E 135°19'0 0.0
2015-Jun-30 13:33N 34°33' E 135°19'0 0.0
2015-Jun-30 12:33N 34°33' E 135°19'0 0.0
2015-Jun-30 11:33N 34°33' E 135°19'0 0.0
2015-Jun-30 10:33N 34°33' E 135°19'0 0.0
2015-Jun-30 09:33N 34°33' E 135°19'2 1.8
2015-Jun-30 08:33N 34°31' E 135°17'1413.2
2015-Jun-30 07:31N 34°22' E 135°05'1211.7
2015-Jun-30 06:32N 34°11' E 134°60'23010.4
2015-Jun-29 08:28N 35°03' E 139°32'1112.4
2015-Jun-29 07:33N 35°09' E 139°44'1111.4
2015-Jun-29 06:33N 35°20' E 139°42'1211.7
2015-Jun-29 05:33N 35°29' E 139°51'3 3.5
2015-Jun-29 04:33N 35°29' E 139°56'6 5.9
2015-Jun-29 03:33N 35°31' E 140°02'0 0.2
2015-Jun-29 02:33N 35°31' E 140°02'0 0.0
2015-Jun-29 01:33N 35°31' E 140°02'0 0.0
2015-Jun-29 00:33N 35°31' E 140°02'0 0.0
2015-Jun-28 23:33N 35°31' E 140°02'6 5.7
2015-Jun-28 22:33N 35°29' E 139°56'0 0.4
2015-Jun-28 21:33N 35°29' E 139°55'0 0.0
2015-Jun-28 20:32N 35°29' E 139°55'0 0.0
2015-Jun-28 19:33N 35°29' E 139°55'0 0.0
2015-Jun-28 18:33N 35°29' E 139°55'0 0.0
2015-Jun-28 17:34N 35°29' E 139°55'0 0.0
2015-Jun-28 16:34N 35°29' E 139°55'0 0.0
2015-Jun-28 15:33N 35°29' E 139°55'0 0.0
2015-Jun-28 14:33N 35°29' E 139°55'0 0.0
2015-Jun-28 13:34N 35°29' E 139°55'0 0.0
2015-Jun-28 12:33N 35°29' E 139°55'0 0.0
2015-Jun-28 11:33N 35°29' E 139°55'4 4.1
2015-Jun-28 10:33N 35°27' E 139°51'1111.1
2015-Jun-28 09:34N 35°17' E 139°45'1211.8
2015-Jun-28 08:33N 35°06' E 139°44'24110.5
2015-Jun-27 09:31N 34°09' E 134°59'1411.1
2015-Jun-27 08:14N 34°23' E 135°02'912.3
2015-Jun-27 07:30N 34°27' E 135°11'1212.7
2015-Jun-27 06:33N 34°33' E 135°24'2 0.6
2015-Jun-27 03:30N 34°33' E 135°25'0 0.0
2015-Jun-27 01:26N 34°33' E 135°25'0 0.0
2015-Jun-27 00:33N 34°33' E 135°25'0 0.0
2015-Jun-26 23:31N 34°33' E 135°25'2 1.7
2015-Jun-26 22:33N 34°33' E 135°24'4 3.8
2015-Jun-26 21:33N 34°33' E 135°19'0 0.0
2015-Jun-26 20:33N 34°33' E 135°19'0 0.0
2015-Jun-26 19:32N 34°33' E 135°19'0 0.1
2015-Jun-26 18:33N 34°33' E 135°19'0 0.1
2015-Jun-26 17:33N 34°33' E 135°19'0 0.0
2015-Jun-26 16:33N 34°33' E 135°19'0 0.0
2015-Jun-26 15:33N 34°33' E 135°19'0 0.0
2015-Jun-26 14:33N 34°33' E 135°19'0 0.0
2015-Jun-26 13:33N 34°33' E 135°19'0 0.1
2015-Jun-26 12:33N 34°33' E 135°19'0 0.0
2015-Jun-26 11:33N 34°33' E 135°19'0 0.0
2015-Jun-26 10:33N 34°33' E 135°19'0 0.0
2015-Jun-26 09:33N 34°33' E 135°19'0 0.0
2015-Jun-26 08:33N 34°33' E 135°19'0 0.1
2015-Jun-26 07:33N 34°33' E 135°19'0 0.1
2015-Jun-26 06:33N 34°32' E 135°19'1312.5
2015-Jun-26 05:31N 34°24' E 135°08'1212.5
2015-Jun-26 04:32N 34°13' E 134°60'23610.3
2015-Jun-25 05:33N 35°06' E 139°39'1211.6
2015-Jun-25 04:32N 35°16' E 139°45'1110.8
2015-Jun-25 03:33N 35°27' E 139°47'1312.6
2015-Jun-25 02:33N 35°31' E 140°01'1 1.2
2015-Jun-25 01:33N 35°31' E 140°02'0 0.0
2015-Jun-25 00:33N 35°31' E 140°02'0 0.0
2015-Jun-24 23:34N 35°31' E 140°02'0 0.0
2015-Jun-24 22:33N 35°31' E 140°02'5 5.3
2015-Jun-24 21:33N 35°29' E 139°56'1 1.3
2015-Jun-24 20:33N 35°29' E 139°55'0 0.0
2015-Jun-24 19:33N 35°29' E 139°55'0 0.0
2015-Jun-24 18:33N 35°29' E 139°55'0 0.0
2015-Jun-24 17:33N 35°29' E 139°55'0 0.0
2015-Jun-24 16:33N 35°29' E 139°55'0 0.0
2015-Jun-24 15:34N 35°29' E 139°55'0 0.1
2015-Jun-24 14:33N 35°29' E 139°55'0 0.0
2015-Jun-24 13:33N 35°29' E 139°55'0 0.0
2015-Jun-24 12:33N 35°29' E 139°55'0 0.0
2015-Jun-24 11:33N 35°29' E 139°55'0 0.1
2015-Jun-24 10:33N 35°29' E 139°55'0 0.0
2015-Jun-24 09:33N 35°29' E 139°55'1010.4
2015-Jun-24 08:34N 35°22' E 139°45'1212.1
2015-Jun-24 07:33N 35°10' E 139°46'  

Dump ship's entire track history